sensor_id;sensor_type;location;lat;lon;timestamp;P1;durP1;ratioP1;P2;durP2;ratioP2
21860;SDS011;11095;48.066;8.540;2024-03-29T00:02:12;2.40;;;1.50;;
21860;SDS011;11095;48.066;8.540;2024-03-29T00:04:37;2.67;;;1.80;;
21860;SDS011;11095;48.066;8.540;2024-03-29T00:07:03;4.72;;;1.90;;
21860;SDS011;11095;48.066;8.540;2024-03-29T00:09:29;3.65;;;2.00;;
21860;SDS011;11095;48.066;8.540;2024-03-29T00:11:54;2.55;;;1.80;;
21860;SDS011;11095;48.066;8.540;2024-03-29T00:14:20;2.58;;;1.65;;
21860;SDS011;11095;48.066;8.540;2024-03-29T00:16:45;4.50;;;2.10;;
21860;SDS011;11095;48.066;8.540;2024-03-29T00:19:11;3.20;;;2.03;;
21860;SDS011;11095;48.066;8.540;2024-03-29T00:21:36;3.47;;;2.17;;
21860;SDS011;11095;48.066;8.540;2024-03-29T00:24:02;3.00;;;1.95;;
21860;SDS011;11095;48.066;8.540;2024-03-29T00:26:27;2.35;;;1.67;;
21860;SDS011;11095;48.066;8.540;2024-03-29T00:28:53;2.78;;;1.77;;
21860;SDS011;11095;48.066;8.540;2024-03-29T00:31:20;3.00;;;1.58;;
21860;SDS011;11095;48.066;8.540;2024-03-29T00:33:45;2.92;;;1.80;;
21860;SDS011;11095;48.066;8.540;2024-03-29T00:36:11;2.10;;;1.50;;
21860;SDS011;11095;48.066;8.540;2024-03-29T00:38:36;3.13;;;1.90;;
21860;SDS011;11095;48.066;8.540;2024-03-29T00:41:02;2.92;;;1.70;;
21860;SDS011;11095;48.066;8.540;2024-03-29T00:43:28;2.92;;;1.60;;
21860;SDS011;11095;48.066;8.540;2024-03-29T00:45:53;3.83;;;2.00;;
21860;SDS011;11095;48.066;8.540;2024-03-29T00:48:19;3.70;;;2.13;;
21860;SDS011;11095;48.066;8.540;2024-03-29T00:50:45;4.32;;;2.15;;
21860;SDS011;11095;48.066;8.540;2024-03-29T00:53:10;4.68;;;2.33;;
21860;SDS011;11095;48.066;8.540;2024-03-29T00:55:36;3.63;;;2.05;;
21860;SDS011;11095;48.066;8.540;2024-03-29T00:58:02;2.85;;;1.58;;
21860;SDS011;11095;48.066;8.540;2024-03-29T01:00:28;2.70;;;1.60;;
21860;SDS011;11095;48.066;8.540;2024-03-29T01:02:53;1.75;;;1.30;;
21860;SDS011;11095;48.066;8.540;2024-03-29T01:05:19;3.35;;;1.60;;
21860;SDS011;11095;48.066;8.540;2024-03-29T01:07:44;2.13;;;1.50;;
21860;SDS011;11095;48.066;8.540;2024-03-29T01:10:10;2.65;;;1.42;;
21860;SDS011;11095;48.066;8.540;2024-03-29T01:12:35;2.53;;;1.58;;
21860;SDS011;11095;48.066;8.540;2024-03-29T01:15:01;1.65;;;1.35;;
21860;SDS011;11095;48.066;8.540;2024-03-29T01:17:28;4.22;;;1.60;;
21860;SDS011;11095;48.066;8.540;2024-03-29T01:19:54;3.22;;;1.67;;
21860;SDS011;11095;48.066;8.540;2024-03-29T01:22:20;4.00;;;1.52;;
21860;SDS011;11095;48.066;8.540;2024-03-29T01:24:45;1.92;;;1.40;;
21860;SDS011;11095;48.066;8.540;2024-03-29T01:27:11;2.67;;;1.30;;
21860;SDS011;11095;48.066;8.540;2024-03-29T01:29:36;2.55;;;1.33;;
21860;SDS011;11095;48.066;8.540;2024-03-29T01:32:02;3.25;;;1.40;;
21860;SDS011;11095;48.066;8.540;2024-03-29T01:34:28;2.92;;;1.60;;
21860;SDS011;11095;48.066;8.540;2024-03-29T01:36:54;2.65;;;1.30;;
21860;SDS011;11095;48.066;8.540;2024-03-29T01:39:19;2.15;;;1.52;;
21860;SDS011;11095;48.066;8.540;2024-03-29T01:41:49;2.15;;;1.30;;
21860;SDS011;11095;48.066;8.540;2024-03-29T01:44:15;3.85;;;1.70;;
21860;SDS011;11095;48.066;8.540;2024-03-29T01:46:41;2.55;;;1.30;;
21860;SDS011;11095;48.066;8.540;2024-03-29T01:49:06;3.60;;;1.27;;
21860;SDS011;11095;48.066;8.540;2024-03-29T01:51:34;2.05;;;1.20;;
21860;SDS011;11095;48.066;8.540;2024-03-29T01:54:03;2.78;;;1.40;;
21860;SDS011;11095;48.066;8.540;2024-03-29T01:56:30;2.08;;;1.23;;
21860;SDS011;11095;48.066;8.540;2024-03-29T01:58:56;2.15;;;1.13;;
21860;SDS011;11095;48.066;8.540;2024-03-29T02:01:24;2.55;;;1.10;;
21860;SDS011;11095;48.066;8.540;2024-03-29T02:03:52;1.90;;;1.10;;
21860;SDS011;11095;48.066;8.540;2024-03-29T02:06:19;1.60;;;1.15;;
21860;SDS011;11095;48.066;8.540;2024-03-29T02:08:44;1.27;;;1.10;;
21860;SDS011;11095;48.066;8.540;2024-03-29T02:11:10;2.53;;;1.38;;
21860;SDS011;11095;48.066;8.540;2024-03-29T02:13:35;1.92;;;1.05;;
21860;SDS011;11095;48.066;8.540;2024-03-29T02:16:02;1.73;;;1.10;;
21860;SDS011;11095;48.066;8.540;2024-03-29T02:18:27;1.20;;;1.00;;
21860;SDS011;11095;48.066;8.540;2024-03-29T02:20:53;2.75;;;1.10;;
21860;SDS011;11095;48.066;8.540;2024-03-29T02:23:29;1.30;;;0.90;;
21860;SDS011;11095;48.066;8.540;2024-03-29T02:25:57;1.83;;;1.00;;
21860;SDS011;11095;48.066;8.540;2024-03-29T02:28:24;1.73;;;1.00;;
21860;SDS011;11095;48.066;8.540;2024-03-29T02:30:50;2.20;;;1.27;;
21860;SDS011;11095;48.066;8.540;2024-03-29T02:33:16;1.50;;;0.88;;
21860;SDS011;11095;48.066;8.540;2024-03-29T02:35:41;2.17;;;1.08;;
21860;SDS011;11095;48.066;8.540;2024-03-29T02:38:07;2.47;;;1.13;;
21860;SDS011;11095;48.066;8.540;2024-03-29T02:40:32;2.35;;;1.10;;
21860;SDS011;11095;48.066;8.540;2024-03-29T02:42:58;2.05;;;1.00;;
21860;SDS011;11095;48.066;8.540;2024-03-29T02:45:24;1.25;;;0.93;;
21860;SDS011;11095;48.066;8.540;2024-03-29T02:47:49;2.05;;;1.05;;
21860;SDS011;11095;48.066;8.540;2024-03-29T02:50:15;1.33;;;0.95;;
21860;SDS011;11095;48.066;8.540;2024-03-29T02:52:41;2.50;;;1.10;;
21860;SDS011;11095;48.066;8.540;2024-03-29T02:55:07;1.88;;;1.10;;
21860;SDS011;11095;48.066;8.540;2024-03-29T02:57:35;1.40;;;1.00;;
21860;SDS011;11095;48.066;8.540;2024-03-29T03:00:01;2.28;;;1.10;;
21860;SDS011;11095;48.066;8.540;2024-03-29T03:02:28;1.52;;;1.00;;
21860;SDS011;11095;48.066;8.540;2024-03-29T03:04:53;1.80;;;1.02;;
21860;SDS011;11095;48.066;8.540;2024-03-29T03:07:19;1.88;;;1.00;;
21860;SDS011;11095;48.066;8.540;2024-03-29T03:10:03;1.10;;;0.95;;
21860;SDS011;11095;48.066;8.540;2024-03-29T03:12:48;1.08;;;0.90;;
21860;SDS011;11095;48.066;8.540;2024-03-29T03:15:13;1.00;;;0.80;;
21860;SDS011;11095;48.066;8.540;2024-03-29T03:17:39;1.55;;;0.98;;
21860;SDS011;11095;48.066;8.540;2024-03-29T03:20:05;1.85;;;1.08;;
21860;SDS011;11095;48.066;8.540;2024-03-29T03:22:31;2.38;;;1.20;;
21860;SDS011;11095;48.066;8.540;2024-03-29T03:24:57;1.35;;;1.08;;
21860;SDS011;11095;48.066;8.540;2024-03-29T03:27:23;1.83;;;0.95;;
21860;SDS011;11095;48.066;8.540;2024-03-29T03:29:48;2.88;;;1.00;;
21860;SDS011;11095;48.066;8.540;2024-03-29T03:32:14;1.35;;;1.00;;
21860;SDS011;11095;48.066;8.540;2024-03-29T03:34:39;2.08;;;1.10;;
21860;SDS011;11095;48.066;8.540;2024-03-29T03:37:05;1.10;;;0.82;;
21860;SDS011;11095;48.066;8.540;2024-03-29T03:39:31;1.63;;;1.10;;
21860;SDS011;11095;48.066;8.540;2024-03-29T03:41:56;1.20;;;0.90;;
21860;SDS011;11095;48.066;8.540;2024-03-29T03:44:22;1.98;;;0.90;;
21860;SDS011;11095;48.066;8.540;2024-03-29T03:46:50;2.45;;;1.05;;
21860;SDS011;11095;48.066;8.540;2024-03-29T03:49:16;1.42;;;0.82;;
21860;SDS011;11095;48.066;8.540;2024-03-29T03:51:41;1.98;;;0.90;;
21860;SDS011;11095;48.066;8.540;2024-03-29T03:54:07;2.58;;;0.98;;
21860;SDS011;11095;48.066;8.540;2024-03-29T03:56:33;1.70;;;0.98;;
21860;SDS011;11095;48.066;8.540;2024-03-29T03:58:58;1.30;;;0.80;;
21860;SDS011;11095;48.066;8.540;2024-03-29T04:01:24;0.80;;;0.80;;
21860;SDS011;11095;48.066;8.540;2024-03-29T04:03:49;1.67;;;0.90;;
21860;SDS011;11095;48.066;8.540;2024-03-29T04:06:15;1.88;;;0.80;;
21860;SDS011;11095;48.066;8.540;2024-03-29T04:08:41;1.02;;;0.80;;
21860;SDS011;11095;48.066;8.540;2024-03-29T04:11:09;1.45;;;1.15;;
21860;SDS011;11095;48.066;8.540;2024-03-29T04:13:35;2.22;;;1.30;;
21860;SDS011;11095;48.066;8.540;2024-03-29T04:16:07;2.75;;;1.10;;
21860;SDS011;11095;48.066;8.540;2024-03-29T04:18:33;1.92;;;0.90;;
21860;SDS011;11095;48.066;8.540;2024-03-29T04:21:00;2.10;;;1.02;;
21860;SDS011;11095;48.066;8.540;2024-03-29T04:23:26;1.80;;;0.95;;
21860;SDS011;11095;48.066;8.540;2024-03-29T04:25:55;1.02;;;0.90;;
21860;SDS011;11095;48.066;8.540;2024-03-29T04:28:22;1.98;;;0.82;;
21860;SDS011;11095;48.066;8.540;2024-03-29T04:33:21;1.20;;;0.88;;
21860;SDS011;11095;48.066;8.540;2024-03-29T04:35:58;1.90;;;1.00;;
21860;SDS011;11095;48.066;8.540;2024-03-29T04:38:25;1.10;;;0.95;;
21860;SDS011;11095;48.066;8.540;2024-03-29T04:40:52;1.52;;;1.00;;
21860;SDS011;11095;48.066;8.540;2024-03-29T04:43:21;1.20;;;0.90;;
21860;SDS011;11095;48.066;8.540;2024-03-29T04:45:47;1.40;;;0.95;;
21860;SDS011;11095;48.066;8.540;2024-03-29T04:48:13;1.90;;;1.00;;
21860;SDS011;11095;48.066;8.540;2024-03-29T04:50:38;1.05;;;0.88;;
21860;SDS011;11095;48.066;8.540;2024-03-29T04:53:04;4.05;;;0.85;;
21860;SDS011;11095;48.066;8.540;2024-03-29T04:55:30;3.78;;;0.93;;
21860;SDS011;11095;48.066;8.540;2024-03-29T04:57:56;1.33;;;1.08;;
21860;SDS011;11095;48.066;8.540;2024-03-29T05:00:22;1.48;;;0.88;;
21860;SDS011;11095;48.066;8.540;2024-03-29T05:02:47;1.10;;;0.80;;
21860;SDS011;11095;48.066;8.540;2024-03-29T05:05:13;1.60;;;0.90;;
21860;SDS011;11095;48.066;8.540;2024-03-29T05:07:38;1.15;;;0.90;;
21860;SDS011;11095;48.066;8.540;2024-03-29T05:10:04;2.05;;;1.00;;
21860;SDS011;11095;48.066;8.540;2024-03-29T05:12:32;1.13;;;0.90;;
21860;SDS011;11095;48.066;8.540;2024-03-29T05:14:57;1.35;;;0.90;;
21860;SDS011;11095;48.066;8.540;2024-03-29T05:17:23;1.77;;;1.08;;
21860;SDS011;11095;48.066;8.540;2024-03-29T05:19:52;1.92;;;0.95;;
21860;SDS011;11095;48.066;8.540;2024-03-29T05:22:20;1.73;;;1.00;;
21860;SDS011;11095;48.066;8.540;2024-03-29T05:24:46;2.30;;;0.88;;
21860;SDS011;11095;48.066;8.540;2024-03-29T05:27:12;1.00;;;0.90;;
21860;SDS011;11095;48.066;8.540;2024-03-29T05:29:38;1.05;;;0.93;;
21860;SDS011;11095;48.066;8.540;2024-03-29T05:32:05;1.23;;;0.90;;
21860;SDS011;11095;48.066;8.540;2024-03-29T05:34:31;1.83;;;1.02;;
21860;SDS011;11095;48.066;8.540;2024-03-29T05:36:57;1.45;;;0.93;;
21860;SDS011;11095;48.066;8.540;2024-03-29T05:39:22;1.50;;;1.10;;
21860;SDS011;11095;48.066;8.540;2024-03-29T05:41:48;2.15;;;1.10;;
21860;SDS011;11095;48.066;8.540;2024-03-29T05:44:13;1.42;;;0.90;;
21860;SDS011;11095;48.066;8.540;2024-03-29T05:46:39;1.35;;;0.90;;
21860;SDS011;11095;48.066;8.540;2024-03-29T05:49:05;1.08;;;0.95;;
21860;SDS011;11095;48.066;8.540;2024-03-29T05:51:31;1.30;;;0.90;;
21860;SDS011;11095;48.066;8.540;2024-03-29T05:53:58;1.17;;;0.80;;
21860;SDS011;11095;48.066;8.540;2024-03-29T05:56:24;1.33;;;0.90;;
21860;SDS011;11095;48.066;8.540;2024-03-29T05:58:50;1.60;;;0.95;;
21860;SDS011;11095;48.066;8.540;2024-03-29T06:01:15;1.20;;;1.00;;
21860;SDS011;11095;48.066;8.540;2024-03-29T06:03:41;2.03;;;1.08;;
21860;SDS011;11095;48.066;8.540;2024-03-29T06:06:07;0.90;;;0.77;;
21860;SDS011;11095;48.066;8.540;2024-03-29T06:08:32;1.40;;;0.85;;
21860;SDS011;11095;48.066;8.540;2024-03-29T06:10:58;1.27;;;0.80;;
21860;SDS011;11095;48.066;8.540;2024-03-29T06:13:24;1.60;;;1.10;;
21860;SDS011;11095;48.066;8.540;2024-03-29T06:16:12;1.80;;;0.98;;
21860;SDS011;11095;48.066;8.540;2024-03-29T06:18:57;0.98;;;0.82;;
21860;SDS011;11095;48.066;8.540;2024-03-29T06:21:23;1.58;;;0.85;;
21860;SDS011;11095;48.066;8.540;2024-03-29T06:23:48;1.08;;;0.80;;
21860;SDS011;11095;48.066;8.540;2024-03-29T06:26:14;0.75;;;0.70;;
21860;SDS011;11095;48.066;8.540;2024-03-29T06:28:39;0.98;;;0.80;;
21860;SDS011;11095;48.066;8.540;2024-03-29T06:31:05;1.85;;;0.80;;
21860;SDS011;11095;48.066;8.540;2024-03-29T06:33:30;1.33;;;0.95;;
21860;SDS011;11095;48.066;8.540;2024-03-29T06:35:56;2.22;;;1.40;;
21860;SDS011;11095;48.066;8.540;2024-03-29T06:38:21;1.50;;;1.17;;
21860;SDS011;11095;48.066;8.540;2024-03-29T06:40:47;2.05;;;1.38;;
21860;SDS011;11095;48.066;8.540;2024-03-29T06:43:13;1.90;;;1.52;;
21860;SDS011;11095;48.066;8.540;2024-03-29T06:45:42;1.30;;;1.10;;
21860;SDS011;11095;48.066;8.540;2024-03-29T06:48:10;1.60;;;1.20;;
21860;SDS011;11095;48.066;8.540;2024-03-29T06:50:41;1.40;;;1.08;;
21860;SDS011;11095;48.066;8.540;2024-03-29T06:53:06;2.53;;;0.98;;
21860;SDS011;11095;48.066;8.540;2024-03-29T06:55:33;1.25;;;0.90;;
21860;SDS011;11095;48.066;8.540;2024-03-29T06:58:02;0.77;;;0.70;;
21860;SDS011;11095;48.066;8.540;2024-03-29T07:00:27;1.23;;;0.90;;
21860;SDS011;11095;48.066;8.540;2024-03-29T07:02:53;1.20;;;0.70;;
21860;SDS011;11095;48.066;8.540;2024-03-29T07:05:18;1.00;;;0.80;;
21860;SDS011;11095;48.066;8.540;2024-03-29T07:07:44;1.17;;;0.70;;
21860;SDS011;11095;48.066;8.540;2024-03-29T07:10:12;0.90;;;0.77;;
21860;SDS011;11095;48.066;8.540;2024-03-29T07:12:37;1.58;;;0.63;;
21860;SDS011;11095;48.066;8.540;2024-03-29T07:15:03;0.70;;;0.60;;
21860;SDS011;11095;48.066;8.540;2024-03-29T07:17:29;1.15;;;0.80;;
21860;SDS011;11095;48.066;8.540;2024-03-29T07:19:55;2.63;;;0.70;;
21860;SDS011;11095;48.066;8.540;2024-03-29T07:22:21;1.08;;;0.70;;
21860;SDS011;11095;48.066;8.540;2024-03-29T07:24:46;1.33;;;0.75;;
21860;SDS011;11095;48.066;8.540;2024-03-29T07:27:12;1.10;;;1.00;;
21860;SDS011;11095;48.066;8.540;2024-03-29T07:29:39;2.33;;;1.30;;
21860;SDS011;11095;48.066;8.540;2024-03-29T07:32:07;1.77;;;1.17;;
21860;SDS011;11095;48.066;8.540;2024-03-29T07:34:32;1.60;;;1.10;;
21860;SDS011;11095;48.066;8.540;2024-03-29T07:36:58;1.45;;;1.00;;
21860;SDS011;11095;48.066;8.540;2024-03-29T07:39:24;1.23;;;1.00;;
21860;SDS011;11095;48.066;8.540;2024-03-29T07:41:49;1.60;;;1.00;;
21860;SDS011;11095;48.066;8.540;2024-03-29T07:44:15;1.33;;;0.95;;
21860;SDS011;11095;48.066;8.540;2024-03-29T07:46:40;1.02;;;0.80;;
21860;SDS011;11095;48.066;8.540;2024-03-29T07:49:06;1.20;;;1.00;;
21860;SDS011;11095;48.066;8.540;2024-03-29T07:51:32;1.35;;;1.25;;
21860;SDS011;11095;48.066;8.540;2024-03-29T07:53:58;1.40;;;1.30;;
21860;SDS011;11095;48.066;8.540;2024-03-29T07:56:24;2.00;;;1.10;;
21860;SDS011;11095;48.066;8.540;2024-03-29T07:58:51;1.65;;;1.30;;
21860;SDS011;11095;48.066;8.540;2024-03-29T08:01:18;2.45;;;1.15;;
21860;SDS011;11095;48.066;8.540;2024-03-29T08:03:45;1.45;;;1.00;;
21860;SDS011;11095;48.066;8.540;2024-03-29T08:06:10;2.30;;;1.00;;
21860;SDS011;11095;48.066;8.540;2024-03-29T08:08:36;1.00;;;0.90;;
21860;SDS011;11095;48.066;8.540;2024-03-29T08:11:01;1.00;;;0.80;;
21860;SDS011;11095;48.066;8.540;2024-03-29T08:13:27;1.05;;;0.82;;
21860;SDS011;11095;48.066;8.540;2024-03-29T08:15:56;1.08;;;0.88;;
21860;SDS011;11095;48.066;8.540;2024-03-29T08:18:23;1.30;;;0.90;;
21860;SDS011;11095;48.066;8.540;2024-03-29T08:20:49;1.10;;;0.82;;
21860;SDS011;11095;48.066;8.540;2024-03-29T08:23:14;0.90;;;0.80;;
21860;SDS011;11095;48.066;8.540;2024-03-29T08:25:40;1.27;;;0.90;;
21860;SDS011;11095;48.066;8.540;2024-03-29T08:28:05;0.85;;;0.70;;
21860;SDS011;11095;48.066;8.540;2024-03-29T08:30:31;1.25;;;0.80;;
21860;SDS011;11095;48.066;8.540;2024-03-29T08:33:00;1.25;;;0.70;;
21860;SDS011;11095;48.066;8.540;2024-03-29T08:35:28;1.35;;;0.90;;
21860;SDS011;11095;48.066;8.540;2024-03-29T08:37:57;0.68;;;0.60;;
21860;SDS011;11095;48.066;8.540;2024-03-29T08:40:22;0.60;;;0.60;;
21860;SDS011;11095;48.066;8.540;2024-03-29T08:42:49;1.27;;;0.80;;
21860;SDS011;11095;48.066;8.540;2024-03-29T08:45:15;0.88;;;0.70;;
21860;SDS011;11095;48.066;8.540;2024-03-29T08:47:41;0.68;;;0.65;;
21860;SDS011;11095;48.066;8.540;2024-03-29T08:50:06;1.17;;;0.88;;
21860;SDS011;11095;48.066;8.540;2024-03-29T08:52:33;1.00;;;0.90;;
21860;SDS011;11095;48.066;8.540;2024-03-29T08:54:59;0.95;;;0.68;;
21860;SDS011;11095;48.066;8.540;2024-03-29T08:57:24;2.45;;;0.93;;
21860;SDS011;11095;48.066;8.540;2024-03-29T08:59:50;1.08;;;0.65;;
21860;SDS011;11095;48.066;8.540;2024-03-29T09:02:15;1.00;;;0.75;;
21860;SDS011;11095;48.066;8.540;2024-03-29T09:04:41;1.10;;;0.80;;
21860;SDS011;11095;48.066;8.540;2024-03-29T09:07:07;0.70;;;0.50;;
21860;SDS011;11095;48.066;8.540;2024-03-29T09:09:32;1.13;;;0.60;;
21860;SDS011;11095;48.066;8.540;2024-03-29T09:11:58;0.70;;;0.60;;
21860;SDS011;11095;48.066;8.540;2024-03-29T09:14:24;0.70;;;0.70;;
21860;SDS011;11095;48.066;8.540;2024-03-29T09:16:50;1.00;;;0.80;;
21860;SDS011;11095;48.066;8.540;2024-03-29T09:19:16;1.23;;;0.90;;
21860;SDS011;11095;48.066;8.540;2024-03-29T09:21:42;1.35;;;0.90;;
21860;SDS011;11095;48.066;8.540;2024-03-29T09:24:07;0.98;;;0.80;;
21860;SDS011;11095;48.066;8.540;2024-03-29T09:26:33;1.85;;;0.70;;
21860;SDS011;11095;48.066;8.540;2024-03-29T09:28:59;2.30;;;0.82;;
21860;SDS011;11095;48.066;8.540;2024-03-29T09:31:24;1.25;;;0.85;;
21860;SDS011;11095;48.066;8.540;2024-03-29T09:33:50;1.10;;;0.70;;
21860;SDS011;11095;48.066;8.540;2024-03-29T09:36:21;0.60;;;0.43;;
21860;SDS011;11095;48.066;8.540;2024-03-29T09:38:50;2.10;;;0.90;;
21860;SDS011;11095;48.066;8.540;2024-03-29T09:41:16;1.10;;;0.80;;
21860;SDS011;11095;48.066;8.540;2024-03-29T09:43:47;1.13;;;0.70;;
21860;SDS011;11095;48.066;8.540;2024-03-29T09:46:13;1.38;;;0.68;;
21860;SDS011;11095;48.066;8.540;2024-03-29T09:48:40;1.23;;;0.60;;
21860;SDS011;11095;48.066;8.540;2024-03-29T09:51:07;1.00;;;0.68;;
21860;SDS011;11095;48.066;8.540;2024-03-29T09:53:34;1.50;;;0.63;;
21860;SDS011;11095;48.066;8.540;2024-03-29T09:56:05;1.00;;;0.60;;
21860;SDS011;11095;48.066;8.540;2024-03-29T09:58:31;2.35;;;0.80;;
21860;SDS011;11095;48.066;8.540;2024-03-29T10:00:58;0.60;;;0.52;;
21860;SDS011;11095;48.066;8.540;2024-03-29T10:03:27;0.95;;;0.57;;
21860;SDS011;11095;48.066;8.540;2024-03-29T10:05:58;1.00;;;0.70;;
21860;SDS011;11095;48.066;8.540;2024-03-29T10:08:26;1.45;;;0.95;;
21860;SDS011;11095;48.066;8.540;2024-03-29T10:10:56;0.70;;;0.50;;
21860;SDS011;11095;48.066;8.540;2024-03-29T10:13:22;1.05;;;0.60;;
21860;SDS011;11095;48.066;8.540;2024-03-29T10:15:51;1.27;;;1.00;;
21860;SDS011;11095;48.066;8.540;2024-03-29T10:18:20;1.50;;;1.30;;
21860;SDS011;11095;48.066;8.540;2024-03-29T10:23:26;0.90;;;0.68;;
21860;SDS011;11095;48.066;8.540;2024-03-29T10:25:52;0.82;;;0.60;;
21860;SDS011;11095;48.066;8.540;2024-03-29T10:28:20;0.77;;;0.70;;
21860;SDS011;11095;48.066;8.540;2024-03-29T10:30:46;1.25;;;0.70;;
21860;SDS011;11095;48.066;8.540;2024-03-29T10:33:13;1.63;;;0.80;;
21860;SDS011;11095;48.066;8.540;2024-03-29T10:35:45;1.27;;;0.70;;
21860;SDS011;11095;48.066;8.540;2024-03-29T10:38:11;2.65;;;0.70;;
21860;SDS011;11095;48.066;8.540;2024-03-29T10:40:40;0.88;;;0.68;;
21860;SDS011;11095;48.066;8.540;2024-03-29T10:43:10;1.40;;;0.80;;
21860;SDS011;11095;48.066;8.540;2024-03-29T10:45:41;1.08;;;0.52;;
21860;SDS011;11095;48.066;8.540;2024-03-29T10:48:07;0.75;;;0.60;;
21860;SDS011;11095;48.066;8.540;2024-03-29T10:50:35;1.00;;;0.70;;
21860;SDS011;11095;48.066;8.540;2024-03-29T10:53:01;0.98;;;0.60;;
21860;SDS011;11095;48.066;8.540;2024-03-29T10:55:37;1.88;;;0.80;;
21860;SDS011;11095;48.066;8.540;2024-03-29T10:58:03;0.80;;;0.60;;
21860;SDS011;11095;48.066;8.540;2024-03-29T11:00:33;0.88;;;0.75;;
21860;SDS011;11095;48.066;8.540;2024-03-29T11:03:15;1.13;;;0.52;;
21860;SDS011;11095;48.066;8.540;2024-03-29T11:05:54;0.60;;;0.50;;
21860;SDS011;11095;48.066;8.540;2024-03-29T11:08:26;0.57;;;0.50;;
21860;SDS011;11095;48.066;8.540;2024-03-29T11:10:57;0.82;;;0.55;;
21860;SDS011;11095;48.066;8.540;2024-03-29T11:16:02;1.10;;;0.60;;
21860;SDS011;11095;48.066;8.540;2024-03-29T11:18:29;2.22;;;1.00;;
21860;SDS011;11095;48.066;8.540;2024-03-29T11:20:56;0.88;;;0.60;;
21860;SDS011;11095;48.066;8.540;2024-03-29T11:23:23;0.75;;;0.60;;
21860;SDS011;11095;48.066;8.540;2024-03-29T11:25:52;1.02;;;0.50;;
21860;SDS011;11095;48.066;8.540;2024-03-29T11:30:55;0.75;;;0.40;;
21860;SDS011;11095;48.066;8.540;2024-03-29T11:33:45;0.90;;;0.60;;
21860;SDS011;11095;48.066;8.540;2024-03-29T11:38:44;1.60;;;0.50;;
21860;SDS011;11095;48.066;8.540;2024-03-29T11:41:11;0.90;;;0.60;;
21860;SDS011;11095;48.066;8.540;2024-03-29T11:43:41;1.00;;;0.60;;
21860;SDS011;11095;48.066;8.540;2024-03-29T11:46:11;1.27;;;0.70;;
21860;SDS011;11095;48.066;8.540;2024-03-29T11:51:04;0.88;;;0.70;;
21860;SDS011;11095;48.066;8.540;2024-03-29T11:53:36;1.25;;;0.60;;
21860;SDS011;11095;48.066;8.540;2024-03-29T11:56:02;1.70;;;0.88;;
21860;SDS011;11095;48.066;8.540;2024-03-29T11:58:29;0.70;;;0.60;;
21860;SDS011;11095;48.066;8.540;2024-03-29T12:00:56;0.75;;;0.50;;
21860;SDS011;11095;48.066;8.540;2024-03-29T12:03:25;0.63;;;0.50;;
21860;SDS011;11095;48.066;8.540;2024-03-29T12:05:52;0.93;;;0.70;;
21860;SDS011;11095;48.066;8.540;2024-03-29T12:08:21;0.80;;;0.60;;
21860;SDS011;11095;48.066;8.540;2024-03-29T12:10:47;1.05;;;0.60;;
21860;SDS011;11095;48.066;8.540;2024-03-29T12:13:15;0.80;;;0.60;;
21860;SDS011;11095;48.066;8.540;2024-03-29T12:15:41;0.60;;;0.60;;
21860;SDS011;11095;48.066;8.540;2024-03-29T12:18:07;0.60;;;0.50;;
21860;SDS011;11095;48.066;8.540;2024-03-29T12:20:33;0.98;;;0.52;;
21860;SDS011;11095;48.066;8.540;2024-03-29T12:23:02;1.70;;;0.70;;
21860;SDS011;11095;48.066;8.540;2024-03-29T12:25:29;0.90;;;0.50;;
21860;SDS011;11095;48.066;8.540;2024-03-29T12:27:56;3.15;;;0.70;;
21860;SDS011;11095;48.066;8.540;2024-03-29T12:30:23;0.90;;;0.60;;
21860;SDS011;11095;48.066;8.540;2024-03-29T12:32:59;1.15;;;0.80;;
21860;SDS011;11095;48.066;8.540;2024-03-29T12:37:57;0.68;;;0.50;;
21860;SDS011;11095;48.066;8.540;2024-03-29T12:40:28;0.30;;;0.30;;
21860;SDS011;11095;48.066;8.540;2024-03-29T12:43:03;0.85;;;0.63;;
21860;SDS011;11095;48.066;8.540;2024-03-29T12:45:33;1.42;;;0.50;;
21860;SDS011;11095;48.066;8.540;2024-03-29T12:47:59;0.40;;;0.40;;
21860;SDS011;11095;48.066;8.540;2024-03-29T12:50:30;0.88;;;0.70;;
21860;SDS011;11095;48.066;8.540;2024-03-29T12:52:58;0.47;;;0.40;;
21860;SDS011;11095;48.066;8.540;2024-03-29T12:55:25;0.95;;;0.50;;
21860;SDS011;11095;48.066;8.540;2024-03-29T12:57:55;0.60;;;0.60;;
21860;SDS011;11095;48.066;8.540;2024-03-29T13:00:21;1.85;;;1.10;;
21860;SDS011;11095;48.066;8.540;2024-03-29T13:02:48;0.93;;;0.50;;
21860;SDS011;11095;48.066;8.540;2024-03-29T13:05:14;0.63;;;0.22;;
21860;SDS011;11095;48.066;8.540;2024-03-29T13:07:40;0.70;;;0.47;;
21860;SDS011;11095;48.066;8.540;2024-03-29T13:10:06;0.30;;;0.30;;
21860;SDS011;11095;48.066;8.540;2024-03-29T13:12:38;0.40;;;0.30;;
21860;SDS011;11095;48.066;8.540;2024-03-29T13:15:21;0.82;;;0.40;;
21860;SDS011;11095;48.066;8.540;2024-03-29T13:17:50;0.45;;;0.30;;
21860;SDS011;11095;48.066;8.540;2024-03-29T13:20:17;0.38;;;0.28;;
21860;SDS011;11095;48.066;8.540;2024-03-29T13:22:43;0.60;;;0.20;;
21860;SDS011;11095;48.066;8.540;2024-03-29T13:25:11;0.47;;;0.28;;
21860;SDS011;11095;48.066;8.540;2024-03-29T13:27:38;0.10;;;0.10;;
21860;SDS011;11095;48.066;8.540;2024-03-29T13:30:09;0.40;;;0.30;;
21860;SDS011;11095;48.066;8.540;2024-03-29T13:32:36;0.40;;;0.20;;
21860;SDS011;11095;48.066;8.540;2024-03-29T13:35:05;0.37;;;0.10;;
21860;SDS011;11095;48.066;8.540;2024-03-29T13:37:34;0.60;;;0.30;;
21860;SDS011;11095;48.066;8.540;2024-03-29T13:40:01;0.20;;;0.20;;
21860;SDS011;11095;48.066;8.540;2024-03-29T13:42:28;0.30;;;0.30;;
21860;SDS011;11095;48.066;8.540;2024-03-29T13:44:54;0.50;;;0.35;;
21860;SDS011;11095;48.066;8.540;2024-03-29T13:47:20;0.22;;;0.22;;
21860;SDS011;11095;48.066;8.540;2024-03-29T13:49:46;0.20;;;0.20;;
21860;SDS011;11095;48.066;8.540;2024-03-29T13:52:12;1.27;;;0.30;;
21860;SDS011;11095;48.066;8.540;2024-03-29T13:54:44;0.40;;;0.40;;
21860;SDS011;11095;48.066;8.540;2024-03-29T13:57:11;0.47;;;0.30;;
21860;SDS011;11095;48.066;8.540;2024-03-29T13:59:41;0.75;;;0.35;;
21860;SDS011;11095;48.066;8.540;2024-03-29T14:02:08;0.32;;;0.20;;
21860;SDS011;11095;48.066;8.540;2024-03-29T14:04:35;0.40;;;0.20;;
21860;SDS011;11095;48.066;8.540;2024-03-29T14:07:00;0.20;;;0.20;;
21860;SDS011;11095;48.066;8.540;2024-03-29T14:09:28;0.30;;;0.20;;
21860;SDS011;11095;48.066;8.540;2024-03-29T14:11:54;0.40;;;0.40;;
21860;SDS011;11095;48.066;8.540;2024-03-29T14:14:19;0.50;;;0.40;;
21860;SDS011;11095;48.066;8.540;2024-03-29T14:16:45;0.40;;;0.30;;
21860;SDS011;11095;48.066;8.540;2024-03-29T14:19:10;0.13;;;0.13;;
21860;SDS011;11095;48.066;8.540;2024-03-29T14:21:36;0.10;;;0.10;;
21860;SDS011;11095;48.066;8.540;2024-03-29T14:24:01;0.22;;;0.20;;
21860;SDS011;11095;48.066;8.540;2024-03-29T14:26:27;0.40;;;0.20;;
21860;SDS011;11095;48.066;8.540;2024-03-29T14:28:52;0.32;;;0.20;;
21860;SDS011;11095;48.066;8.540;2024-03-29T14:31:18;0.57;;;0.15;;
21860;SDS011;11095;48.066;8.540;2024-03-29T14:33:43;0.10;;;0.10;;
21860;SDS011;11095;48.066;8.540;2024-03-29T14:36:10;0.45;;;0.15;;
21860;SDS011;11095;48.066;8.540;2024-03-29T14:38:35;0.13;;;0.13;;
21860;SDS011;11095;48.066;8.540;2024-03-29T14:41:01;0.55;;;0.28;;
21860;SDS011;11095;48.066;8.540;2024-03-29T14:43:26;0.10;;;0.10;;
21860;SDS011;11095;48.066;8.540;2024-03-29T14:45:52;0.65;;;0.28;;
21860;SDS011;11095;48.066;8.540;2024-03-29T14:48:17;0.60;;;0.20;;
21860;SDS011;11095;48.066;8.540;2024-03-29T14:50:43;0.20;;;0.20;;
21860;SDS011;11095;48.066;8.540;2024-03-29T14:53:09;0.45;;;0.20;;
21860;SDS011;11095;48.066;8.540;2024-03-29T14:55:34;0.57;;;0.25;;
21860;SDS011;11095;48.066;8.540;2024-03-29T15:00:30;0.75;;;0.32;;
21860;SDS011;11095;48.066;8.540;2024-03-29T15:02:55;0.20;;;0.20;;
21860;SDS011;11095;48.066;8.540;2024-03-29T15:05:21;0.30;;;0.20;;
21860;SDS011;11095;48.066;8.540;2024-03-29T15:07:46;0.20;;;0.13;;